createdAt,value
2022-12-24T00:00:05.896Z,6.31
2022-12-24T00:03:11.545Z,6.29
2022-12-24T00:06:24.206Z,6.31
2022-12-24T00:09:30.867Z,6.30
2022-12-24T00:12:38.638Z,6.30
2022-12-24T00:15:44.070Z,6.30
2022-12-24T00:18:50.176Z,6.24
2022-12-24T00:21:56.275Z,6.19
2022-12-24T00:25:02.922Z,6.19
2022-12-24T00:28:09.238Z,6.16
2022-12-24T00:31:14.026Z,6.13
2022-12-24T00:34:21.075Z,6.12
2022-12-24T00:37:26.653Z,6.09
2022-12-24T00:40:33.222Z,6.07
2022-12-24T00:43:38.168Z,6.09
2022-12-24T00:46:44.328Z,6.08
2022-12-24T00:49:49.507Z,6.03
2022-12-24T00:52:56.211Z,6.01
2022-12-24T00:56:01.170Z,6.02
2022-12-24T00:59:06.234Z,6.04
2022-12-24T01:02:12.315Z,6.09
2022-12-24T01:05:17.930Z,6.14
2022-12-24T01:08:24.851Z,6.21
2022-12-24T01:11:31.725Z,6.28
2022-12-24T01:14:37.864Z,6.33
2022-12-24T01:17:46.064Z,6.34
2022-12-24T01:20:51.138Z,6.31
2022-12-24T01:23:57.354Z,6.29
2022-12-24T01:27:02.727Z,6.29
2022-12-24T01:30:08.138Z,6.33
2022-12-24T01:33:14.266Z,6.36
2022-12-24T01:36:20.989Z,6.40
2022-12-24T01:39:26.061Z,6.46
2022-12-24T01:42:55.784Z,6.52
2022-12-24T01:46:08.472Z,6.56
2022-12-24T01:49:17.598Z,6.56
2022-12-24T01:52:29.957Z,6.58
2022-12-24T01:55:36.455Z,6.59
2022-12-24T01:58:44.743Z,6.53
2022-12-24T02:01:52.014Z,6.49
2022-12-24T02:05:12.156Z,6.47
2022-12-24T02:08:18.200Z,6.44
2022-12-24T02:11:34.296Z,6.45
2022-12-24T02:14:39.631Z,6.48
2022-12-24T02:17:55.691Z,6.48
2022-12-24T02:21:30.858Z,6.47
2022-12-24T02:24:41.213Z,6.48
2022-12-24T02:28:02.849Z,6.52
2022-12-24T02:31:18.310Z,6.52
2022-12-24T02:34:35.866Z,6.55
2022-12-24T02:37:46.306Z,6.57
2022-12-24T02:40:56.713Z,6.61
2022-12-24T02:44:02.114Z,6.62
2022-12-24T02:47:08.353Z,6.59
2022-12-24T02:50:16.248Z,6.54
2022-12-24T02:53:23.647Z,6.52
2022-12-24T02:57:06.718Z,6.50
2022-12-24T03:00:23.362Z,6.48
2022-12-24T03:03:52.698Z,6.46
2022-12-24T03:07:12.350Z,6.47
2022-12-24T03:10:57.843Z,6.46
2022-12-24T03:14:04.582Z,6.45
2022-12-24T03:17:11.645Z,6.45
2022-12-24T03:20:17.468Z,6.48
2022-12-24T03:23:22.625Z,6.52
2022-12-24T03:26:29.247Z,6.57
2022-12-24T03:29:34.447Z,6.61
2022-12-24T03:32:46.457Z,6.64
2022-12-24T03:35:52.224Z,6.67
2022-12-24T03:38:58.172Z,6.61
2022-12-24T03:42:04.420Z,6.54
2022-12-24T03:45:09.303Z,6.50
2022-12-24T03:48:17.740Z,6.51
2022-12-24T03:51:32.049Z,6.44
2022-12-24T03:54:37.196Z,6.40
2022-12-24T03:57:43.271Z,6.36
2022-12-24T04:00:49.467Z,6.32
2022-12-24T04:03:55.908Z,6.29
2022-12-24T04:07:02.211Z,6.26
2022-12-24T04:10:08.629Z,6.25
2022-12-24T04:13:13.940Z,6.25
2022-12-24T04:16:23.194Z,6.29
2022-12-24T04:19:30.336Z,6.26
2022-12-24T04:22:36.589Z,6.21
2022-12-24T04:25:43.855Z,6.24
2022-12-24T04:28:48.892Z,6.22
2022-12-24T04:31:54.908Z,6.18
2022-12-24T04:35:00.608Z,6.15
2022-12-24T04:38:06.595Z,6.10
2022-12-24T04:41:25.277Z,6.06
2022-12-24T04:44:30.645Z,6.10
2022-12-24T04:47:36.855Z,6.10
2022-12-24T04:50:42.024Z,6.13
2022-12-24T04:53:47.535Z,6.12
2022-12-24T04:56:53.278Z,6.12
2022-12-24T04:59:59.166Z,6.15
2022-12-24T05:03:05.008Z,6.13
2022-12-24T05:06:19.563Z,6.13
2022-12-24T05:09:26.866Z,6.14
2022-12-24T05:12:33.536Z,6.12
2022-12-24T05:15:39.107Z,6.10
2022-12-24T05:18:44.580Z,6.08
2022-12-24T05:21:50.894Z,6.04
2022-12-24T05:25:14.673Z,6.03
2022-12-24T05:28:20.233Z,6.07
2022-12-24T05:31:26.910Z,6.12
2022-12-24T05:34:32.962Z,6.04
2022-12-24T05:37:39.481Z,5.99
2022-12-24T05:40:48.497Z,5.95
2022-12-24T05:43:54.954Z,5.91
2022-12-24T05:47:03.365Z,5.92
2022-12-24T05:50:09.867Z,5.98
2022-12-24T05:53:18.162Z,6.01
2022-12-24T05:56:32.495Z,6.01
2022-12-24T05:59:38.665Z,6.07
2022-12-24T06:02:44.763Z,6.11
2022-12-24T06:05:50.896Z,6.18
2022-12-24T06:08:57.485Z,6.20
2022-12-24T06:12:02.897Z,6.20
2022-12-24T06:15:08.538Z,6.25
2022-12-24T06:18:14.986Z,6.32
2022-12-24T06:21:21.747Z,6.28
2022-12-24T06:24:27.277Z,6.27
2022-12-24T06:27:34.154Z,6.27
2022-12-24T06:30:40.007Z,6.28
2022-12-24T06:33:46.385Z,6.26
2022-12-24T06:36:52.153Z,6.25
2022-12-24T06:39:57.975Z,6.24
2022-12-24T06:43:02.975Z,6.19
2022-12-24T06:46:08.572Z,6.18
2022-12-24T06:49:15.016Z,6.19
2022-12-24T06:52:20.303Z,6.24
2022-12-24T06:55:25.787Z,6.22
2022-12-24T06:58:31.885Z,6.24
2022-12-24T07:01:37.862Z,6.28
2022-12-24T07:04:42.926Z,6.37
2022-12-24T07:07:47.629Z,6.48
2022-12-24T07:10:54.520Z,6.58
2022-12-24T07:14:01.887Z,6.67
2022-12-24T07:17:07.489Z,6.76
2022-12-24T07:20:14.614Z,6.83
2022-12-24T07:23:20.119Z,6.87
2022-12-24T07:26:25.647Z,6.90
2022-12-24T07:29:31.396Z,6.92
2022-12-24T07:32:37.987Z,6.90
2022-12-24T07:35:44.819Z,6.87
2022-12-24T07:38:50.360Z,6.83
2022-12-24T07:41:57.252Z,6.80
2022-12-24T07:45:03.714Z,6.78
2022-12-24T07:48:10.102Z,6.78
2022-12-24T07:51:15.298Z,6.82
2022-12-24T07:54:21.347Z,6.83
2022-12-24T07:57:26.826Z,6.85
2022-12-24T08:00:33.416Z,6.84
2022-12-24T08:03:40.513Z,6.84
2022-12-24T08:06:46.735Z,6.83
2022-12-24T08:09:57.061Z,6.85
2022-12-24T08:13:03.362Z,6.84
2022-12-24T08:16:08.875Z,6.87
2022-12-24T08:19:17.426Z,6.87
2022-12-24T08:22:23.414Z,6.91
2022-12-24T08:25:28.709Z,6.94
2022-12-24T08:28:35.108Z,7.02
2022-12-24T08:31:43.528Z,7.10
2022-12-24T08:34:50.142Z,7.17
2022-12-24T08:37:58.066Z,7.16
2022-12-24T08:41:04.012Z,7.15
2022-12-24T08:44:10.934Z,7.09
2022-12-24T08:47:20.011Z,6.99
2022-12-24T08:50:26.208Z,6.93
2022-12-24T08:53:34.042Z,6.90
2022-12-24T08:56:42.811Z,6.87
2022-12-24T08:59:47.665Z,6.90
2022-12-24T09:02:56.253Z,6.93
2022-12-24T09:06:03.110Z,6.96
2022-12-24T09:09:10.568Z,6.96
2022-12-24T09:12:20.070Z,6.98
2022-12-24T09:15:26.336Z,7.00
2022-12-24T09:18:34.229Z,6.92
2022-12-24T09:21:39.786Z,6.92
2022-12-24T09:24:47.026Z,6.97
2022-12-24T09:27:54.102Z,7.00
2022-12-24T09:31:00.175Z,6.98
2022-12-24T09:34:06.068Z,6.95
2022-12-24T09:37:13.366Z,6.96
2022-12-24T09:40:21.183Z,6.99
2022-12-24T09:43:38.776Z,7.11
2022-12-24T09:46:50.533Z,7.22
2022-12-24T09:49:59.463Z,7.36
2022-12-24T09:53:08.297Z,7.45
2022-12-24T09:56:15.776Z,7.52
2022-12-24T09:59:34.579Z,7.47
2022-12-24T10:02:42.886Z,7.44
2022-12-24T10:06:04.118Z,7.48
2022-12-24T10:09:26.937Z,7.48
2022-12-24T10:12:50.482Z,7.57
2022-12-24T10:16:21.170Z,7.61
2022-12-24T10:19:40.908Z,7.66
2022-12-24T10:23:17.536Z,7.59
2022-12-24T10:26:42.794Z,7.53
2022-12-24T10:29:56.575Z,7.60
2022-12-24T10:33:07.509Z,7.70
2022-12-24T10:36:13.577Z,7.74
2022-12-24T10:39:21.093Z,7.80
2022-12-24T10:42:26.503Z,7.87
2022-12-24T10:45:36.814Z,7.95
2022-12-24T10:48:52.658Z,8.00
2022-12-24T10:52:11.858Z,8.00
2022-12-24T10:55:28.271Z,7.97
2022-12-24T10:58:35.390Z,7.98
2022-12-24T11:02:02.360Z,8.06
2022-12-24T11:05:09.401Z,8.12
2022-12-24T11:08:32.233Z,8.18
2022-12-24T11:11:38.301Z,8.18
2022-12-24T11:14:49.909Z,8.21
2022-12-24T11:17:56.136Z,8.25
2022-12-24T11:21:07.635Z,8.25
2022-12-24T11:24:29.735Z,8.26
2022-12-24T11:27:46.905Z,8.30
2022-12-24T11:30:52.855Z,8.32
2022-12-24T11:34:07.049Z,8.34
2022-12-24T11:37:39.195Z,8.33
2022-12-24T11:40:52.499Z,8.28
2022-12-24T11:44:01.260Z,8.24
2022-12-24T11:47:07.377Z,8.18
2022-12-24T11:50:18.673Z,8.10
2022-12-24T11:53:34.585Z,8.04
2022-12-24T11:56:53.163Z,8.00
2022-12-24T12:00:03.587Z,8.00
2022-12-24T12:03:11.143Z,8.01
2022-12-24T12:06:17.904Z,8.00
2022-12-24T12:09:29.885Z,7.96
2022-12-24T12:12:42.432Z,7.97
2022-12-24T12:16:07.442Z,7.99
2022-12-24T12:19:20.336Z,8.03
2022-12-24T12:22:33.703Z,8.02
2022-12-24T12:25:52.178Z,8.01
2022-12-24T12:29:15.163Z,8.01
2022-12-24T12:32:23.692Z,8.01
2022-12-24T12:35:47.994Z,8.02
2022-12-24T12:38:56.183Z,8.03
2022-12-24T12:42:44.891Z,8.02
2022-12-24T12:46:10.236Z,7.99
2022-12-24T12:49:41.576Z,8.00
2022-12-24T12:53:29.007Z,7.99
2022-12-24T12:56:47.932Z,7.99
2022-12-24T13:00:06.399Z,7.99
2022-12-24T13:03:29.102Z,8.01
2022-12-24T13:06:54.592Z,8.01
2022-12-24T13:10:13.461Z,7.99
2022-12-24T13:13:50.319Z,7.95
2022-12-24T13:17:34.238Z,7.94
2022-12-24T13:20:46.279Z,7.92
2022-12-24T13:23:51.770Z,7.91
2022-12-24T13:26:58.130Z,7.92
2022-12-24T13:30:21.506Z,7.88
2022-12-24T13:33:30.701Z,7.88
2022-12-24T13:36:36.846Z,7.86
2022-12-24T13:39:42.424Z,7.83
2022-12-24T13:43:19.057Z,7.78
2022-12-24T13:46:23.969Z,7.71
2022-12-24T13:49:57.120Z,7.69
2022-12-24T13:53:08.587Z,7.67
2022-12-24T13:56:29.176Z,7.65
2022-12-24T13:59:51.511Z,7.64
2022-12-24T14:03:20.772Z,7.67
2022-12-24T14:06:47.321Z,7.68
2022-12-24T14:09:53.743Z,7.66
2022-12-24T14:13:04.863Z,7.67
2022-12-24T14:16:16.668Z,7.67
2022-12-24T14:19:35.368Z,7.68
2022-12-24T14:22:59.425Z,7.63
2022-12-24T14:26:05.923Z,7.54
2022-12-24T14:29:24.593Z,7.47
2022-12-24T14:32:30.907Z,7.42
2022-12-24T14:35:39.177Z,7.43
2022-12-24T14:38:44.978Z,7.44
2022-12-24T14:42:13.999Z,7.43
2022-12-24T14:45:49.982Z,7.47
2022-12-24T14:49:13.445Z,7.47
2022-12-24T14:53:04.794Z,7.44
2022-12-24T14:56:00.605Z,7.41
2022-12-24T14:59:10.032Z,7.42
2022-12-24T15:02:38.030Z,7.40
2022-12-24T15:05:44.647Z,7.42
2022-12-24T15:09:02.685Z,7.44
2022-12-24T15:12:12.343Z,7.48
2022-12-24T15:15:16.990Z,7.53
2022-12-24T15:18:24.136Z,7.56
2022-12-24T15:21:37.312Z,7.55
2022-12-24T15:24:49.228Z,7.56
2022-12-24T15:27:56.236Z,7.54
2022-12-24T15:31:03.752Z,7.49
2022-12-24T15:34:11.349Z,7.43
2022-12-24T15:37:27.121Z,7.42
2022-12-24T15:40:36.733Z,7.41
2022-12-24T15:43:42.615Z,7.41
2022-12-24T15:46:48.907Z,7.41
2022-12-24T15:49:58.647Z,7.43
2022-12-24T15:53:19.310Z,7.48
2022-12-24T15:56:27.342Z,7.51
2022-12-24T15:59:37.765Z,7.52
2022-12-24T16:03:00.024Z,7.52
2022-12-24T16:06:25.241Z,7.55
2022-12-24T16:09:56.052Z,7.56
2022-12-24T16:13:00.909Z,7.58
2022-12-24T16:16:10.176Z,7.63
2022-12-24T16:19:17.022Z,7.63
2022-12-24T16:22:42.299Z,7.60
2022-12-24T16:25:48.680Z,7.57
2022-12-24T16:28:54.729Z,7.55
2022-12-24T16:32:06.227Z,7.51
2022-12-24T16:35:11.010Z,7.46
2022-12-24T16:38:16.836Z,7.40
2022-12-24T16:41:22.678Z,7.36
2022-12-24T16:44:29.321Z,7.31
2022-12-24T16:47:43.315Z,7.23
2022-12-24T16:50:48.256Z,7.19
2022-12-24T16:53:54.949Z,7.13
2022-12-24T16:57:01.753Z,7.07
2022-12-24T17:00:09.768Z,7.00
2022-12-24T17:03:14.476Z,6.92
2022-12-24T17:06:21.978Z,6.84
2022-12-24T17:09:28.605Z,6.79
2022-12-24T17:12:34.646Z,6.75
2022-12-24T17:15:40.554Z,6.78
2022-12-24T17:18:46.190Z,6.80
2022-12-24T17:21:52.956Z,6.85
2022-12-24T17:24:58.728Z,6.89
2022-12-24T17:28:05.621Z,6.91
2022-12-24T17:31:10.799Z,6.90
2022-12-24T17:34:16.411Z,6.95
2022-12-24T17:37:24.249Z,6.93
2022-12-24T17:40:31.632Z,6.90
2022-12-24T17:43:37.382Z,6.85
2022-12-24T17:46:43.550Z,6.80
2022-12-24T17:49:48.732Z,6.76
2022-12-24T17:52:55.910Z,6.72
2022-12-24T17:56:00.873Z,6.72
2022-12-24T17:59:07.230Z,6.72
2022-12-24T18:02:12.365Z,6.74
2022-12-24T18:05:19.082Z,6.77
2022-12-24T18:08:24.519Z,6.82
2022-12-24T18:11:39.959Z,6.87
2022-12-24T18:14:48.040Z,6.90
2022-12-24T18:17:53.509Z,6.92
2022-12-24T18:21:00.914Z,6.94
2022-12-24T18:24:05.790Z,6.95
2022-12-24T18:27:13.163Z,6.94
2022-12-24T18:30:27.626Z,6.91
2022-12-24T18:33:29.796Z,6.85
2022-12-24T18:36:35.820Z,6.77
2022-12-24T18:39:43.405Z,6.73
2022-12-24T18:42:50.676Z,6.74
2022-12-24T18:45:58.591Z,6.77
2022-12-24T18:49:06.387Z,6.79
2022-12-24T18:52:16.574Z,6.81
2022-12-24T18:55:21.592Z,6.87
2022-12-24T18:58:27.678Z,6.91
2022-12-24T19:01:37.779Z,6.94
2022-12-24T19:04:45.244Z,6.97
2022-12-24T19:07:52.076Z,7.02
2022-12-24T19:10:59.124Z,7.08
2022-12-24T19:14:08.922Z,7.12
2022-12-24T19:17:14.902Z,7.16
2022-12-24T19:20:21.005Z,7.22
2022-12-24T19:23:29.965Z,7.22
2022-12-24T19:26:35.421Z,7.27
2022-12-24T19:29:42.767Z,7.31
2022-12-24T19:32:48.551Z,7.34
2022-12-24T19:35:53.904Z,7.36
2022-12-24T19:39:00.922Z,7.36
2022-12-24T19:42:07.038Z,7.36
2022-12-24T19:45:12.111Z,7.36
2022-12-24T19:48:19.306Z,7.38
2022-12-24T19:51:27.549Z,7.34
2022-12-24T19:54:34.203Z,7.31
2022-12-24T19:57:39.459Z,7.29
2022-12-24T20:00:45.566Z,7.25
2022-12-24T20:03:52.456Z,7.26
2022-12-24T20:07:00.698Z,7.27
2022-12-24T20:10:06.950Z,7.29
2022-12-24T20:13:14.206Z,7.33
2022-12-24T20:16:22.868Z,7.34
2022-12-24T20:19:29.252Z,7.33
2022-12-24T20:22:36.295Z,7.33
2022-12-24T20:25:42.044Z,7.32
2022-12-24T20:28:51.215Z,7.33
2022-12-24T20:31:58.589Z,7.33
2022-12-24T20:35:06.927Z,7.32
2022-12-24T20:38:13.295Z,7.31
2022-12-24T20:41:20.367Z,7.31
2022-12-24T20:44:26.978Z,7.32
2022-12-24T20:47:33.208Z,7.31
2022-12-24T20:50:39.407Z,7.30
2022-12-24T20:53:47.599Z,7.30
2022-12-24T20:56:57.907Z,7.24
2022-12-24T21:00:06.040Z,7.20
2022-12-24T21:03:12.467Z,7.21
2022-12-24T21:06:20.411Z,7.20
2022-12-24T21:09:27.726Z,7.19
2022-12-24T21:12:51.748Z,7.19
2022-12-24T21:15:59.445Z,7.20
2022-12-24T21:19:04.465Z,7.20
2022-12-24T21:22:09.671Z,7.14
2022-12-24T21:25:16.209Z,7.11
2022-12-24T21:28:22.354Z,7.11
2022-12-24T21:31:29.615Z,7.11
2022-12-24T21:34:38.187Z,7.09
2022-12-24T21:37:44.695Z,7.10
2022-12-24T21:40:50.620Z,7.09
2022-12-24T21:43:58.601Z,7.10
2022-12-24T21:47:05.167Z,7.08
2022-12-24T21:50:32.261Z,7.04
2022-12-24T21:53:56.472Z,7.03
2022-12-24T21:57:20.400Z,7.01
2022-12-24T22:00:31.655Z,7.00
2022-12-24T22:03:37.960Z,7.03
2022-12-24T22:07:01.957Z,7.05
2022-12-24T22:10:20.902Z,7.05
2022-12-24T22:13:16.288Z,7.05
2022-12-24T22:16:22.413Z,7.07
2022-12-24T22:19:28.444Z,7.09
2022-12-24T22:22:34.971Z,7.11
2022-12-24T22:25:40.049Z,7.13
2022-12-24T22:28:46.566Z,7.14
2022-12-24T22:31:54.238Z,7.16
2022-12-24T22:35:00.716Z,7.14
2022-12-24T22:38:06.030Z,7.13
2022-12-24T22:41:11.867Z,7.13
2022-12-24T22:44:17.229Z,7.17
2022-12-24T22:47:23.540Z,7.17
2022-12-24T22:50:30.318Z,7.19
2022-12-24T22:53:36.143Z,7.19
2022-12-24T22:56:42.565Z,7.20
2022-12-24T22:59:48.216Z,7.20
2022-12-24T23:02:54.852Z,7.23
2022-12-24T23:06:00.820Z,7.21
2022-12-24T23:09:07.336Z,7.23
2022-12-24T23:12:13.825Z,7.22
2022-12-24T23:15:21.074Z,7.23
2022-12-24T23:18:26.926Z,7.23
2022-12-24T23:21:27.253Z,7.23
2022-12-24T23:24:33.119Z,7.24
2022-12-24T23:27:39.112Z,7.10
2022-12-24T23:30:45.066Z,6.99
2022-12-24T23:33:51.052Z,6.99
2022-12-24T23:36:57.283Z,7.02
2022-12-24T23:40:03.955Z,7.04
2022-12-24T23:43:10.222Z,7.08
2022-12-24T23:46:17.736Z,7.09
2022-12-24T23:49:28.390Z,7.11
2022-12-24T23:52:34.331Z,7.11
2022-12-24T23:55:41.915Z,7.12
2022-12-24T23:58:47.182Z,7.13
